Time;durP1;ratioP1;P1;durP2;ratioP2;P2;SDS_P1;SDS_P2;PMS_P1;PMS_P2;Temp;Humidity;BMP_temperature;BMP_pressure;BME280_temperature;BME280_humidity;BME280_pressure;Samples;Min_cycle;Max_cycle;Signal;HPM_P1;HPM_P2
2021/12/05 00:20:04;;;;;;;61.22;33.10;;;2.00;99.90;;;;;;5038204;28;20182;-89
2021/12/05 00:22:46;;;;;;;59.13;34.03;;;2.00;99.90;;;;;;5066032;28;20186;-91
2021/12/05 00:25:23;;;;;;;60.80;34.45;;;2.10;99.90;;;;;;5020539;28;20198;-91
2021/12/05 01:15:06;;;;;;;65.30;36.40;;;2.50;99.90;;;;;;5040964;28;20210;-91
2021/12/05 01:17:53;;;;;;;67.40;36.85;;;2.50;99.90;;;;;;5036092;28;20178;-90
2021/12/05 01:20:20;;;;;;;62.10;36.25;;;2.60;99.90;;;;;;5018344;28;20609;-90
2021/12/05 01:22:55;;;;;;;60.67;36.97;;;2.60;99.90;;;;;;5058760;28;20273;-90
2021/12/05 01:30:53;;;;;;;67.63;37.47;;;2.60;99.90;;;;;;5035481;28;20194;-90
2021/12/05 01:33:32;;;;;;;61.95;37.40;;;2.60;99.90;;;;;;5017579;28;20194;-90
2021/12/05 01:36:17;;;;;;;61.38;36.67;;;2.60;99.90;;;;;;5017232;28;20264;-90
2021/12/05 01:57:43;;;;;;;63.97;34.50;;;2.80;99.90;;;;;;5035202;28;20563;-90
2021/12/05 02:07:42;;;;;;;61.63;35.70;;;2.90;99.90;;;;;;5045515;28;20251;-90
2021/12/05 02:16:44;;;;;;;52.28;32.50;;;2.90;99.90;;;;;;5038706;28;20232;-91
2021/12/05 02:43:09;;;;;;;53.08;32.63;;;3.10;99.90;;;;;;5038340;28;20577;-91
2021/12/05 02:45:39;;;;;;;57.25;35.05;;;3.10;99.90;;;;;;5054565;28;20202;-91
2021/12/05 02:48:06;;;;;;;55.15;34.15;;;3.20;99.90;;;;;;5053571;28;20179;-92
2021/12/05 02:50:34;;;;;;;55.80;32.47;;;3.20;99.90;;;;;;5053549;28;20194;-91
2021/12/05 02:53:16;;;;;;;52.08;31.48;;;3.20;99.90;;;;;;5053553;28;20190;-91
2021/12/05 02:55:43;;;;;;;52.90;32.47;;;3.30;99.90;;;;;;5055598;28;20226;-90
2021/12/05 03:03:32;;;;;;;55.70;32.85;;;3.30;99.90;;;;;;5038028;28;20218;-89
2021/12/05 03:06:07;;;;;;;58.92;32.67;;;3.30;99.90;;;;;;5020114;28;20244;-90
2021/12/05 03:08:33;;;;;;;52.10;29.75;;;3.30;99.90;;;;;;5054193;28;20185;-91
2021/12/05 03:11:00;;;;;;;45.27;29.77;;;3.30;99.90;;;;;;5037646;28;20198;-91
2021/12/05 03:13:27;;;;;;;56.17;31.35;;;3.30;99.90;;;;;;5039406;28;20187;-90
2021/12/05 03:15:56;;;;;;;52.22;29.48;;;3.40;99.90;;;;;;5042369;28;20671;-91
2021/12/05 03:18:23;;;;;;;52.70;31.25;;;3.40;99.90;;;;;;5056370;28;20279;-89
2021/12/05 03:20:49;;;;;;;61.42;35.97;;;3.40;99.90;;;;;;5035298;28;20222;-90
2021/12/05 03:23:15;;;;;;;60.63;37.63;;;3.40;99.90;;;;;;5056464;28;20193;-90
2021/12/05 03:25:41;;;;;;;53.47;30.77;;;3.40;99.90;;;;;;5025244;28;20447;-91
2021/12/05 03:28:07;;;;;;;60.53;35.50;;;3.40;99.90;;;;;;5028465;28;20268;-90
2021/12/05 03:30:33;;;;;;;52.95;32.65;;;3.40;99.90;;;;;;5038498;28;20195;-90
2021/12/05 03:33:00;;;;;;;53.28;32.63;;;3.40;99.90;;;;;;5056162;28;20269;-92
2021/12/05 03:35:29;;;;;;;50.90;34.05;;;3.30;99.90;;;;;;5056670;28;20610;-90
2021/12/05 03:37:55;;;;;;;61.22;31.15;;;3.40;99.90;;;;;;5073588;28;20197;-91
2021/12/05 03:40:24;;;;;;;46.30;28.65;;;3.40;99.90;;;;;;5050896;28;20191;-91
2021/12/05 03:42:51;;;;;;;58.40;34.78;;;3.30;99.90;;;;;;5020510;28;20237;-91
2021/12/05 03:45:21;;;;;;;57.45;32.85;;;3.30;99.90;;;;;;5054423;28;20202;-90
2021/12/05 03:47:47;;;;;;;53.33;31.00;;;3.30;99.90;;;;;;5043383;28;20265;-91
2021/12/05 03:50:14;;;;;;;51.17;32.03;;;3.30;99.90;;;;;;5024888;28;20262;-91
2021/12/05 03:52:40;;;;;;;55.85;30.75;;;3.30;99.90;;;;;;5060439;28;20194;-92
2021/12/05 03:55:08;;;;;;;47.05;30.83;;;3.30;99.90;;;;;;5020939;28;20217;-90
2021/12/05 03:57:34;;;;;;;55.05;31.00;;;3.30;99.90;;;;;;5052633;28;20588;-90
2021/12/05 04:00:00;;;;;;;50.20;30.93;;;3.30;99.90;;;;;;5040103;28;20206;-90
2021/12/05 04:02:26;;;;;;;51.33;30.58;;;3.30;99.90;;;;;;5057785;28;20395;-91
2021/12/05 04:04:52;;;;;;;44.30;27.93;;;3.30;99.90;;;;;;5048089;28;20297;-91
2021/12/05 04:07:18;;;;;;;50.00;30.47;;;3.30;99.90;;;;;;5052570;28;20929;-90
2021/12/05 04:09:46;;;;;;;58.83;30.83;;;3.30;99.90;;;;;;5038082;28;20178;-91
2021/12/05 04:12:15;;;;;;;50.47;31.42;;;3.30;99.90;;;;;;5051992;28;20187;-89
2021/12/05 04:14:45;;;;;;;51.20;29.80;;;3.30;99.90;;;;;;5051972;28;20191;-90
2021/12/05 04:17:14;;;;;;;53.20;31.25;;;3.30;99.90;;;;;;5018625;28;20198;-90
2021/12/05 04:19:40;;;;;;;45.17;29.58;;;3.30;99.90;;;;;;5018702;28;20185;-90
2021/12/05 04:22:07;;;;;;;61.50;32.70;;;3.30;99.90;;;;;;5019479;28;20186;-91
2021/12/05 04:24:33;;;;;;;51.00;28.73;;;3.30;99.90;;;;;;5018595;28;20395;-91
2021/12/05 04:27:00;;;;;;;46.55;30.45;;;3.30;99.90;;;;;;5018372;28;20214;-90
2021/12/05 04:29:26;;;;;;;49.55;31.05;;;3.30;99.90;;;;;;5036275;28;20685;-90
2021/12/05 04:31:52;;;;;;;51.28;28.38;;;3.30;99.90;;;;;;5035911;28;20241;-90
2021/12/05 04:34:18;;;;;;;48.22;29.08;;;3.40;99.90;;;;;;5051336;28;20178;-91
2021/12/05 04:36:45;;;;;;;46.87;29.50;;;3.40;99.90;;;;;;5051366;28;20218;-89
2021/12/05 04:39:12;;;;;;;43.33;28.20;;;3.40;99.90;;;;;;5051631;28;20470;-90
2021/12/05 04:41:41;;;;;;;50.95;31.05;;;3.40;99.90;;;;;;5018067;28;20564;-91
2021/12/05 04:44:07;;;;;;;51.25;30.50;;;3.50;99.90;;;;;;5017990;28;20238;-90
2021/12/05 04:46:33;;;;;;;51.20;31.88;;;3.50;99.90;;;;;;5021190;28;20205;-89
2021/12/05 04:48:59;;;;;;;65.65;41.42;;;3.50;99.90;;;;;;5040334;28;20163;-92
2021/12/05 04:51:30;;;;;;;71.03;38.97;;;3.50;99.90;;;;;;5027126;28;20204;-91
2021/12/05 04:53:57;;;;;;;53.22;35.15;;;3.50;99.90;;;;;;5018141;28;20269;-90
2021/12/05 04:56:23;;;;;;;60.92;34.88;;;3.50;99.90;;;;;;5050886;28;20214;-91
2021/12/05 04:58:49;;;;;;;50.90;32.85;;;3.50;99.90;;;;;;5036173;28;20561;-90
2021/12/05 05:01:15;;;;;;;64.10;35.92;;;3.50;99.90;;;;;;5019659;28;20199;-91
2021/12/05 05:03:41;;;;;;;54.00;32.53;;;3.50;99.90;;;;;;5017981;28;20185;-89
2021/12/05 05:06:12;;;;;;;55.13;32.30;;;3.60;99.90;;;;;;5017990;28;20413;-91
2021/12/05 05:08:39;;;;;;;57.35;31.83;;;3.60;99.90;;;;;;5051399;28;20698;-90
2021/12/05 05:11:08;;;;;;;59.60;35.00;;;3.60;99.90;;;;;;5035210;28;20195;-92
2021/12/05 05:13:33;;;;;;;59.42;33.75;;;3.60;99.90;;;;;;5018559;28;20166;-90
2021/12/05 05:16:02;;;;;;;63.10;37.33;;;3.60;99.90;;;;;;5051090;28;20229;-90
2021/12/05 05:18:30;;;;;;;72.72;38.70;;;3.60;99.90;;;;;;5017576;28;20762;-90
2021/12/05 05:23:40;;;;;;;57.40;34.50;;;3.60;99.90;;;;;;5035385;28;20181;-91
2021/12/05 05:50:15;;;;;;;47.22;28.13;;;3.60;99.90;;;;;;5035419;28;20201;-90
2021/12/05 05:52:41;;;;;;;42.88;26.70;;;3.60;99.90;;;;;;5036349;28;20190;-89
2021/12/05 05:55:07;;;;;;;50.17;29.43;;;3.60;99.90;;;;;;5051494;28;20214;-91
2021/12/05 05:57:40;;;;;;;46.35;28.70;;;3.60;99.90;;;;;;5066681;28;20213;-90
2021/12/05 06:00:18;;;;;;;41.30;25.60;;;3.60;99.90;;;;;;5018959;28;20205;-92
2021/12/05 06:05:32;;;;;;;47.58;26.88;;;3.60;99.90;;;;;;5035015;28;20701;-91
2021/12/05 06:07:58;;;;;;;44.35;27.17;;;3.70;99.90;;;;;;5018108;28;20218;-90
2021/12/05 06:10:26;;;;;;;41.67;25.37;;;3.70;99.90;;;;;;5050128;28;20209;-91
2021/12/05 06:12:53;;;;;;;48.83;27.90;;;3.70;99.90;;;;;;5050424;28;20647;-91
2021/12/05 06:15:21;;;;;;;44.35;24.58;;;3.80;99.90;;;;;;5016901;28;20222;-91
2021/12/05 06:17:47;;;;;;;46.50;27.10;;;3.80;99.90;;;;;;5051227;28;20186;-90
2021/12/05 06:20:16;;;;;;;56.10;30.15;;;3.80;99.90;;;;;;5039969;28;20202;-89
2021/12/05 06:22:46;;;;;;;64.25;31.88;;;3.80;99.90;;;;;;5053981;28;20175;-90
2021/12/05 06:25:19;;;;;;;49.65;28.10;;;3.80;99.90;;;;;;5034490;28;20268;-89
2021/12/05 06:27:46;;;;;;;58.97;30.98;;;3.80;99.90;;;;;;5050333;28;20190;-90
2021/12/05 06:30:21;;;;;;;55.50;30.70;;;3.80;99.90;;;;;;5051297;28;20225;-91
2021/12/05 06:46:04;;;;;;;65.05;35.72;;;3.80;99.90;;;;;;5035604;28;20203;-92
2021/12/05 06:48:30;;;;;;;48.10;28.42;;;3.80;99.90;;;;;;5018315;28;20299;-91
2021/12/05 06:50:56;;;;;;;41.30;26.33;;;3.90;99.90;;;;;;5029972;28;20199;-90
2021/12/05 06:53:22;;;;;;;39.65;25.95;;;3.90;99.90;;;;;;5020437;28;20174;-91
2021/12/05 06:55:48;;;;;;;40.95;25.42;;;3.90;99.90;;;;;;5051124;28;20215;-89
2021/12/05 06:58:14;;;;;;;38.43;22.67;;;3.90;99.90;;;;;;5020021;28;20189;-89
2021/12/05 07:00:39;;;;;;;44.00;24.83;;;3.90;99.90;;;;;;5053493;28;20783;-90
2021/12/05 07:03:07;;;;;;;38.37;24.73;;;4.00;99.90;;;;;;5025262;28;20183;-90
2021/12/05 07:08:06;;;;;;;42.78;23.70;;;4.00;99.90;;;;;;5042039;28;20186;-90
2021/12/05 07:10:38;;;;;;;38.03;23.67;;;4.00;99.90;;;;;;5054051;28;20198;-89
2021/12/05 07:23:48;;;;;;;44.20;25.83;;;4.00;99.90;;;;;;5037801;28;20217;-90
2021/12/05 07:42:41;;;;;;;43.45;24.05;;;4.10;99.90;;;;;;5038010;28;20273;-90
2021/12/05 07:45:11;;;;;;;42.65;25.38;;;4.10;99.90;;;;;;5052694;28;20304;-91
2021/12/05 07:47:40;;;;;;;42.60;25.30;;;4.20;99.90;;;;;;5019628;28;20233;-90
2021/12/05 07:50:09;;;;;;;43.22;25.20;;;4.20;99.90;;;;;;5023911;28;20206;-91
2021/12/05 07:52:38;;;;;;;44.03;27.60;;;4.20;99.90;;;;;;5060030;28;20182;-91
2021/12/05 07:57:58;;;;;;;39.13;24.50;;;4.20;99.90;;;;;;5041890;28;20643;-92
2021/12/05 08:16:55;;;;;;;44.70;27.95;;;4.40;99.90;;;;;;5035442;28;20221;-91
2021/12/05 08:19:21;;;;;;;43.00;27.20;;;4.50;99.90;;;;;;5017583;28;20229;-92
2021/12/05 08:21:56;;;;;;;50.80;29.83;;;4.50;99.90;;;;;;5036502;28;20194;-91
2021/12/05 08:24:32;;;;;;;42.20;26.05;;;4.50;99.90;;;;;;5017451;28;20577;-89
2021/12/05 08:26:59;;;;;;;43.38;26.38;;;4.50;99.90;;;;;;5018495;28;20186;-91
2021/12/05 08:29:32;;;;;;;37.83;26.27;;;4.60;99.90;;;;;;5019754;28;20656;-91
2021/12/05 08:32:14;;;;;;;46.50;27.58;;;4.60;99.90;;;;;;5036326;28;20202;-92
2021/12/05 08:37:37;;;;;;;49.78;29.13;;;4.60;99.90;;;;;;5036178;28;20214;-91
2021/12/05 10:09:31;;;;;;;47.63;29.42;;;5.40;99.90;;;;;;5043238;28;20146;-90
2021/12/05 10:17:39;;;;;;;51.13;31.38;;;5.40;99.90;;;;;;5034930;28;20245;-91
2021/12/05 10:20:28;;;;;;;50.85;30.20;;;5.40;99.90;;;;;;5017355;28;20201;-90
2021/12/05 10:37:11;;;;;;;53.17;33.08;;;5.60;99.90;;;;;;5038831;28;20221;-91
2021/12/05 10:39:38;;;;;;;58.28;36.55;;;5.60;99.90;;;;;;5020611;28;20183;-91
2021/12/05 10:42:37;;;;;;;67.78;46.03;;;5.70;99.90;;;;;;5038609;28;20178;-91
2021/12/05 10:45:06;;;;;;;52.85;32.70;;;5.70;99.90;;;;;;5020273;28;20230;-92
2021/12/05 10:47:41;;;;;;;62.03;36.65;;;5.70;99.90;;;;;;5020429;28;20179;-91
2021/12/05 10:50:26;;;;;;;57.05;34.17;;;5.70;99.90;;;;;;5020262;28;20562;-89
2021/12/05 10:53:22;;;;;;;58.47;34.60;;;5.70;99.90;;;;;;5020501;28;20179;-92
2021/12/05 10:56:13;;;;;;;78.25;45.15;;;5.70;99.90;;;;;;5020482;28;20218;-89
2021/12/05 10:58:43;;;;;;;67.13;37.03;;;5.80;99.90;;;;;;5020608;28;20182;-92
2021/12/05 11:01:15;;;;;;;62.65;34.20;;;5.80;99.90;;;;;;5020388;28;20206;-90
2021/12/05 11:03:42;;;;;;;52.47;33.60;;;5.80;99.90;;;;;;5020662;28;20236;-91
2021/12/05 11:06:24;;;;;;;48.90;31.48;;;5.80;99.90;;;;;;5020570;28;20198;-90
2021/12/05 11:09:01;;;;;;;55.40;31.20;;;5.90;99.90;;;;;;5036097;28;20186;-91
2021/12/05 11:11:27;;;;;;;61.08;39.33;;;5.90;99.90;;;;;;5056127;28;20212;-90
2021/12/05 11:13:53;;;;;;;51.40;33.42;;;5.90;99.90;;;;;;5026881;28;20179;-92
2021/12/05 11:16:54;;;;;;;67.82;50.40;;;5.90;99.90;;;;;;5029381;28;20305;-89
2021/12/05 11:19:27;;;;;;;55.20;37.38;;;5.90;99.90;;;;;;5039965;28;20166;-90
2021/12/05 11:22:00;;;;;;;54.00;36.95;;;5.90;99.90;;;;;;5038981;28;20209;-91
2021/12/05 11:24:34;;;;;;;54.92;36.78;;;5.90;99.90;;;;;;5020317;28;20632;-89
2021/12/05 11:27:13;;;;;;;57.92;36.38;;;5.90;99.90;;;;;;5019984;28;20179;-90
2021/12/05 11:29:59;;;;;;;61.47;39.83;;;5.80;99.90;;;;;;5037590;28;20167;-92
2021/12/05 11:32:51;;;;;;;49.28;30.33;;;5.80;99.90;;;;;;5022619;28;20186;-92
2021/12/05 11:35:25;;;;;;;62.20;44.35;;;5.70;99.90;;;;;;4993329;28;20217;-90
2021/12/05 11:37:57;;;;;;;84.05;66.32;;;5.70;99.90;;;;;;5019658;28;20178;-90
2021/12/05 11:40:25;;;;;;;86.53;56.80;;;5.70;99.90;;;;;;5019639;28;20202;-91
2021/12/05 11:42:56;;;;;;;75.78;49.40;;;5.70;99.90;;;;;;5036949;28;20213;-91
2021/12/05 11:45:22;;;;;;;80.13;47.10;;;5.70;99.90;;;;;;5019552;28;20285;-90
2021/12/05 11:47:51;;;;;;;66.37;44.97;;;5.70;99.90;;;;;;5019716;28;20650;-90
2021/12/05 11:50:19;;;;;;;70.45;41.97;;;5.80;99.90;;;;;;5019358;28;20435;-92
2021/12/05 11:52:48;;;;;;;70.35;47.15;;;5.80;99.90;;;;;;5019502;28;20194;-90
2021/12/05 11:55:23;;;;;;;79.25;38.80;;;5.80;99.90;;;;;;5036683;28;20264;-92
2021/12/05 11:57:49;;;;;;;95.50;65.05;;;5.80;99.90;;;;;;5019396;28;20265;-91
2021/12/05 12:00:18;;;;;;;84.75;38.63;;;5.80;99.90;;;;;;5021229;28;20727;-91
2021/12/05 12:02:46;;;;;;;74.22;37.70;;;5.90;99.90;;;;;;5034561;28;20187;-90
2021/12/05 12:05:20;;;;;;;62.15;37.42;;;5.90;99.90;;;;;;5027550;28;20285;-91
2021/12/05 12:07:48;;;;;;;48.42;30.25;;;5.90;99.90;;;;;;5037150;28;20593;-91
2021/12/05 12:10:21;;;;;;;46.83;30.02;;;5.90;99.90;;;;;;5019619;28;20201;-91
2021/12/05 12:13:03;;;;;;;50.33;33.13;;;5.90;99.90;;;;;;5036570;28;20185;-91
2021/12/05 12:15:30;;;;;;;56.42;32.17;;;6.00;99.90;;;;;;5020112;28;20238;-90
2021/12/05 12:18:07;;;;;;;55.92;31.83;;;6.00;99.90;;;;;;5019087;28;20543;-92
2021/12/05 12:20:36;;;;;;;59.03;36.97;;;6.10;99.90;;;;;;5018681;28;20201;-92
2021/12/05 12:23:02;;;;;;;36.45;24.95;;;6.20;99.90;;;;;;5018111;28;20182;-90
2021/12/05 12:25:33;;;;;;;36.05;22.75;;;6.20;99.90;;;;;;5018229;28;20293;-92
2021/12/05 12:27:59;;;;;;;41.60;29.35;;;6.20;99.90;;;;;;5018787;28;20270;-90
2021/12/05 12:30:35;;;;;;;42.30;26.77;;;6.20;99.90;;;;;;5014867;28;20207;-89
2021/12/05 12:33:08;;;;;;;49.42;30.58;;;6.10;99.90;;;;;;5036128;28;20870;-91
2021/12/05 12:35:34;;;;;;;55.45;33.28;;;6.10;99.90;;;;;;5016509;28;20219;-90
2021/12/05 12:38:03;;;;;;;48.78;33.65;;;6.10;99.90;;;;;;5016960;28;20193;-92
2021/12/05 12:40:40;;;;;;;54.38;37.50;;;6.00;99.90;;;;;;5041035;28;20206;-90
2021/12/05 12:43:08;;;;;;;45.83;28.90;;;6.00;99.90;;;;;;5017959;28;20237;-90
2021/12/05 12:45:41;;;;;;;55.72;34.80;;;6.00;99.90;;;;;;5018492;28;20198;-92
2021/12/05 12:48:16;;;;;;;58.30;34.40;;;6.00;99.90;;;;;;5050311;28;20244;-90
2021/12/05 12:50:51;;;;;;;52.35;33.25;;;6.00;99.90;;;;;;5019966;28;20194;-91
2021/12/05 12:53:27;;;;;;;53.00;31.08;;;6.00;99.90;;;;;;5049395;28;20197;-92
2021/12/05 12:55:59;;;;;;;51.33;31.30;;;6.10;99.90;;;;;;5055165;28;20307;-92
2021/12/05 12:58:50;;;;;;;48.08;27.08;;;6.10;99.90;;;;;;5054802;28;20182;-93
2021/12/05 13:02:25;;;;;;;35.85;23.08;;;6.10;99.90;;;;;;5050321;28;20206;-92
2021/12/05 13:10:11;;;;;;;35.92;22.90;;;6.20;99.90;;;;;;5042069;28;20197;-90
2021/12/05 13:12:40;;;;;;;32.58;23.10;;;6.30;99.90;;;;;;5046455;28;20681;-90
2021/12/05 13:15:22;;;;;;;49.92;32.88;;;6.30;99.90;;;;;;5017504;28;20201;-88
2021/12/05 13:17:59;;;;;;;61.53;46.13;;;6.30;99.90;;;;;;5017349;28;20256;-90
2021/12/05 13:20:43;;;;;;;46.60;29.77;;;6.40;99.90;;;;;;5028882;28;20194;-90
2021/12/05 13:23:10;;;;;;;44.53;28.52;;;6.40;99.90;;;;;;5029136;28;20196;-90
2021/12/05 13:26:02;;;;;;;37.95;24.42;;;6.40;99.90;;;;;;5027851;28;20208;-88
2021/12/05 13:28:44;;;;;;;36.88;21.10;;;6.50;99.90;;;;;;5016804;28;20218;-91
2021/12/05 13:31:31;;;;;;;37.13;20.77;;;6.60;99.90;;;;;;5016561;28;20237;-89
2021/12/05 13:34:17;;;;;;;36.60;20.70;;;6.60;99.90;;;;;;5015162;28;20182;-89
2021/12/05 13:36:46;;;;;;;31.38;20.25;;;6.70;99.90;;;;;;5033578;28;20252;-90
2021/12/05 13:39:41;;;;;;;34.25;19.98;;;6.70;99.90;;;;;;5013132;28;20182;-90
2021/12/05 13:42:17;;;;;;;33.92;21.70;;;6.80;99.90;;;;;;5015708;28;20206;-89
2021/12/05 13:45:04;;;;;;;31.55;20.70;;;6.90;99.90;;;;;;5023832;28;20321;-90
2021/12/05 13:47:51;;;;;;;30.63;21.58;;;6.90;99.90;;;;;;5014180;28;20182;-89
2021/12/05 13:50:25;;;;;;;33.80;21.05;;;6.90;99.90;;;;;;5041870;28;20265;-92
2021/12/05 13:53:02;;;;;;;37.95;23.35;;;7.00;99.90;;;;;;5031785;28;20273;-92
2021/12/05 13:55:46;;;;;;;33.53;21.30;;;7.00;99.90;;;;;;5018471;28;20241;-93
2021/12/05 13:58:34;;;;;;;31.52;22.13;;;7.00;99.90;;;;;;5033055;28;20289;-93
2021/12/05 14:01:15;;;;;;;53.58;27.45;;;7.10;99.90;;;;;;5038280;28;20228;-92
2021/12/05 14:03:47;;;;;;;62.42;31.70;;;7.10;99.90;;;;;;5027829;28;20663;-92
2021/12/05 14:06:44;;;;;;;61.80;34.92;;;7.10;99.90;;;;;;5030861;28;20285;-92
2021/12/05 14:09:13;;;;;;;47.22;26.05;;;7.20;99.90;;;;;;5028393;28;20178;-91
2021/12/05 14:12:07;;;;;;;42.70;26.63;;;7.20;99.90;;;;;;5019799;28;20198;-91
2021/12/05 14:14:47;;;;;;;50.67;27.85;;;7.20;99.90;;;;;;5015451;28;20198;-91
2021/12/05 14:17:19;;;;;;;52.15;31.88;;;7.20;99.90;;;;;;5029794;28;20256;-92
2021/12/05 14:19:54;;;;;;;40.53;24.17;;;7.30;99.90;;;;;;5027391;28;20174;-92
2021/12/05 14:22:22;;;;;;;47.58;25.42;;;7.30;99.90;;;;;;5030051;28;20220;-91
2021/12/05 14:24:53;;;;;;;57.65;28.13;;;7.30;99.90;;;;;;5037391;28;20174;-91
2021/12/05 14:27:25;;;;;;;44.25;25.15;;;7.40;99.90;;;;;;5017692;28;20805;-92
2021/12/05 14:29:52;;;;;;;42.45;24.42;;;7.40;99.90;;;;;;5029791;28;20214;-91
2021/12/05 14:32:24;;;;;;;43.45;26.10;;;7.40;99.90;;;;;;5017684;28;20197;-92
2021/12/05 14:34:54;;;;;;;49.70;30.33;;;7.40;99.90;;;;;;5016918;28;20237;-91
2021/12/05 14:37:22;;;;;;;55.90;35.85;;;7.40;99.90;;;;;;5030655;28;20225;-92
2021/12/05 14:39:49;;;;;;;60.78;36.70;;;7.40;99.90;;;;;;5026828;28;20606;-91
2021/12/05 14:42:25;;;;;;;58.15;32.22;;;7.40;99.90;;;;;;5034359;28;20189;-91
2021/12/05 14:44:54;;;;;;;51.55;29.17;;;7.40;99.90;;;;;;5015776;28;20241;-90
2021/12/05 14:47:23;;;;;;;43.47;26.40;;;7.40;99.90;;;;;;5035279;28;20186;-91
2021/12/05 14:49:57;;;;;;;48.92;27.85;;;7.40;99.90;;;;;;5031863;28;20659;-91
2021/12/05 14:52:33;;;;;;;38.65;23.95;;;7.40;99.90;;;;;;5032900;28;20547;-88
2021/12/05 14:55:00;;;;;;;38.63;22.90;;;7.40;99.90;;;;;;5033431;28;20202;-90
2021/12/05 14:57:31;;;;;;;41.55;23.35;;;7.40;99.90;;;;;;5032340;28;20218;-91
2021/12/05 15:00:24;;;;;;;48.70;29.98;;;7.40;99.90;;;;;;5018466;28;20226;-91
2021/12/05 15:03:17;;;;;;;31.77;22.15;;;7.40;99.90;;;;;;5037833;28;20193;-90
2021/12/05 15:05:48;;;;;;;34.60;21.80;;;7.50;99.90;;;;;;5036126;28;20238;-92
2021/12/05 15:08:17;;;;;;;34.25;21.95;;;7.50;99.90;;;;;;5018963;28;20282;-92
2021/12/05 15:10:47;;;;;;;34.53;21.67;;;7.50;99.90;;;;;;5019538;28;20285;-90
2021/12/05 15:13:29;;;;;;;40.45;25.73;;;7.50;99.90;;;;;;5028572;28;20186;-91
2021/12/05 15:15:57;;;;;;;33.08;23.60;;;7.60;99.90;;;;;;5003473;28;20309;-91
2021/12/05 15:18:29;;;;;;;33.88;23.02;;;7.60;99.90;;;;;;5012667;28;20198;-92
2021/12/05 15:20:55;;;;;;;32.90;21.92;;;7.60;99.90;;;;;;5034466;28;20237;-90
2021/12/05 15:23:30;;;;;;;33.10;20.83;;;7.60;99.90;;;;;;5012515;28;20184;-91
2021/12/05 15:26:03;;;;;;;36.80;25.23;;;7.70;99.90;;;;;;5023902;28;20472;-91
2021/12/05 15:28:35;;;;;;;31.67;22.55;;;7.70;99.90;;;;;;5027646;28;20179;-90
2021/12/05 15:31:03;;;;;;;38.83;26.27;;;7.70;99.90;;;;;;5005350;28;20210;-91
2021/12/05 15:33:29;;;;;;;38.72;24.42;;;7.80;99.90;;;;;;5048201;28;20193;-92
2021/12/05 15:35:58;;;;;;;36.80;23.23;;;7.80;99.90;;;;;;5033038;28;20278;-92
2021/12/05 15:38:27;;;;;;;34.67;23.02;;;7.90;99.90;;;;;;5019920;28;20182;-93
2021/12/05 15:41:00;;;;;;;33.85;22.70;;;7.90;99.90;;;;;;5015020;28;20213;-91
2021/12/05 15:43:27;;;;;;;37.55;26.02;;;8.00;99.90;;;;;;5030012;28;20211;-89
2021/12/05 15:46:00;;;;;;;36.40;24.08;;;8.00;99.90;;;;;;5010966;28;20206;-90
2021/12/05 15:48:32;;;;;;;45.25;24.70;;;8.00;99.90;;;;;;5014577;28;20213;-89
2021/12/05 15:51:01;;;;;;;45.40;29.55;;;8.10;99.90;;;;;;5020554;28;20199;-90
2021/12/05 15:53:31;;;;;;;75.25;39.63;;;8.10;99.90;;;;;;5021578;28;20276;-89
2021/12/05 15:56:01;;;;;;;97.57;47.53;;;8.10;99.90;;;;;;5035293;28;20726;-90
2021/12/05 15:58:38;;;;;;;83.80;46.03;;;8.20;99.90;;;;;;5031663;28;20198;-89
2021/12/05 16:01:14;;;;;;;80.47;52.90;;;8.20;99.90;;;;;;5040774;28;20193;-89
2021/12/05 16:03:42;;;;;;;63.10;43.72;;;8.20;99.90;;;;;;5041806;28;20186;-88
2021/12/05 16:06:09;;;;;;;41.40;30.40;;;8.20;99.90;;;;;;5034139;28;20207;-88
2021/12/05 16:08:36;;;;;;;32.83;23.85;;;8.20;99.90;;;;;;5034757;28;20234;-89
2021/12/05 16:11:02;;;;;;;35.25;23.90;;;8.30;99.90;;;;;;5016469;28;20198;-89
2021/12/05 16:13:42;;;;;;;33.85;23.17;;;8.30;99.90;;;;;;5031309;28;20281;-88
2021/12/05 16:16:28;;;;;;;34.75;21.90;;;8.30;99.90;;;;;;5039684;28;20198;-90
2021/12/05 16:18:58;;;;;;;33.65;21.88;;;8.40;99.90;;;;;;5027393;28;20187;-89
2021/12/05 16:21:32;;;;;;;40.55;24.25;;;8.40;99.90;;;;;;5008961;28;20202;-89
2021/12/05 16:24:14;;;;;;;45.70;26.83;;;8.40;99.90;;;;;;5011647;28;20191;-91
2021/12/05 16:26:41;;;;;;;50.25;31.45;;;8.40;99.90;;;;;;5018633;28;20203;-90
2021/12/05 16:29:15;;;;;;;60.13;32.05;;;8.30;99.90;;;;;;5014946;28;20202;-90
2021/12/05 16:31:57;;;;;;;48.47;27.00;;;8.30;99.90;;;;;;5014178;28;20206;-91
2021/12/05 16:34:26;;;;;;;36.65;21.88;;;8.30;99.90;;;;;;5034112;28;20174;-90
2021/12/05 16:37:12;;;;;;;33.47;20.77;;;8.20;99.90;;;;;;5042559;28;20558;-90
2021/12/05 16:39:48;;;;;;;27.08;18.95;;;8.20;99.90;;;;;;5040073;28;20182;-89
2021/12/05 16:42:23;;;;;;;31.23;19.90;;;8.20;99.90;;;;;;5017866;28;20197;-89
2021/12/05 16:44:59;;;;;;;29.70;18.90;;;8.20;99.90;;;;;;5012610;28;20279;-90
2021/12/05 16:47:29;;;;;;;25.98;16.95;;;8.20;99.90;;;;;;5012668;28;20237;-90
2021/12/05 16:49:59;;;;;;;27.67;19.35;;;8.20;99.90;;;;;;5037397;28;20284;-89
2021/12/05 16:52:34;;;;;;;36.47;22.30;;;8.10;99.90;;;;;;5038336;28;20723;-89
2021/12/05 16:55:23;;;;;;;36.70;24.30;;;8.10;99.90;;;;;;5014163;28;20225;-89
2021/12/05 16:58:32;;;;;;;33.58;21.95;;;8.10;99.90;;;;;;5013164;28;20221;-88
2021/12/05 17:00:42;;;;;;;36.28;23.08;;;8.10;99.90;;;;;;5025504;28;20250;-88
2021/12/05 17:03:15;;;;;;;29.83;18.70;;;8.10;99.90;;;;;;5027155;28;20175;-89
2021/12/05 17:05:45;;;;;;;37.42;20.75;;;8.10;99.90;;;;;;5015536;28;20271;-88
2021/12/05 17:08:20;;;;;;;34.25;22.02;;;8.10;99.90;;;;;;5023202;28;20183;-87
2021/12/05 17:11:06;;;;;;;33.72;20.05;;;8.10;99.90;;;;;;5008781;28;20532;-89
2021/12/05 17:13:40;;;;;;;30.90;18.65;;;8.10;99.90;;;;;;5010465;28;20195;-88
2021/12/05 17:16:13;;;;;;;26.75;16.70;;;8.10;99.90;;;;;;5010701;28;20218;-89
2021/12/05 17:18:47;;;;;;;23.73;16.77;;;8.10;99.90;;;;;;5022381;28;20201;-89
2021/12/05 17:21:25;;;;;;;20.52;15.27;;;8.10;99.90;;;;;;5009420;28;20879;-88
2021/12/05 17:23:52;;;;;;;26.52;16.60;;;8.10;99.90;;;;;;5042386;28;20194;-91
2021/12/05 17:26:28;;;;;;;24.73;17.30;;;8.00;99.90;;;;;;5024172;28;20297;-92
2021/12/05 17:29:19;;;;;;;28.60;18.90;;;8.00;99.90;;;;;;5006488;28;20183;-92
2021/12/05 17:31:58;;;;;;;30.25;21.17;;;7.90;99.90;;;;;;5021666;28;20695;-90
2021/12/05 17:34:32;;;;;;;43.63;26.50;;;7.80;99.90;;;;;;5011923;28;20190;-90
2021/12/05 17:37:20;;;;;;;63.08;36.75;;;7.70;99.90;;;;;;5030695;28;20241;-92
2021/12/05 17:39:48;;;;;;;77.68;42.08;;;7.60;99.90;;;;;;5025511;28;20178;-91
2021/12/05 17:42:20;;;;;;;62.80;33.90;;;7.50;99.90;;;;;;5016005;28;20782;-90
2021/12/05 17:44:49;;;;;;;34.50;24.45;;;7.40;99.90;;;;;;5039806;28;20226;-92
2021/12/05 17:47:16;;;;;;;42.50;28.33;;;7.30;99.90;;;;;;5046571;28;20189;-90
2021/12/05 17:49:43;;;;;;;44.65;27.75;;;7.30;99.90;;;;;;5035551;28;20714;-90
2021/12/05 17:52:12;;;;;;;38.38;22.63;;;7.20;99.90;;;;;;5016092;28;20181;-90
2021/12/05 17:57:29;;;;;;;34.80;21.15;;;7.20;99.90;;;;;;5033179;28;20280;-92
2021/12/05 18:05:19;;;;;;;39.22;24.20;;;7.00;99.90;;;;;;5034961;28;20604;-92
2021/12/05 18:07:47;;;;;;;36.75;25.15;;;7.00;99.90;;;;;;5034613;28;20635;-92
2021/12/05 18:10:19;;;;;;;41.63;25.17;;;6.90;99.90;;;;;;5016587;28;20553;-90
2021/12/05 18:12:46;;;;;;;43.13;28.10;;;6.90;99.90;;;;;;5016960;28;20187;-92
2021/12/05 18:15:23;;;;;;;37.45;25.52;;;6.90;99.90;;;;;;5034797;28;20182;-90
2021/12/05 18:17:49;;;;;;;44.33;28.77;;;6.90;99.90;;;;;;5015962;28;20252;-93
2021/12/05 18:20:19;;;;;;;40.58;26.83;;;6.90;99.90;;;;;;5016078;28;20210;-92
2021/12/05 18:22:46;;;;;;;65.60;42.97;;;6.90;99.90;;;;;;5033443;28;20576;-92
2021/12/05 18:25:13;;;;;;;50.10;37.97;;;6.90;99.90;;;;;;5016338;28;20281;-92
2021/12/05 18:27:40;;;;;;;44.58;30.90;;;6.90;99.90;;;;;;5034470;28;20178;-91
2021/12/05 18:30:09;;;;;;;43.78;28.65;;;6.90;99.90;;;;;;5017513;28;20222;-92
2021/12/05 18:32:35;;;;;;;44.20;27.38;;;6.90;99.90;;;;;;5018659;28;20183;-91
2021/12/05 18:35:04;;;;;;;42.65;29.40;;;6.90;99.90;;;;;;5018818;28;20672;-91
2021/12/05 18:37:30;;;;;;;34.45;22.27;;;6.90;99.90;;;;;;5034658;28;20222;-91
2021/12/05 18:39:56;;;;;;;41.33;26.43;;;6.90;99.90;;;;;;5023626;28;20183;-92
2021/12/05 18:42:23;;;;;;;44.40;26.07;;;6.90;99.90;;;;;;5036311;28;20469;-92
2021/12/05 18:44:51;;;;;;;35.40;23.27;;;6.90;99.90;;;;;;5033974;28;20230;-92
2021/12/05 18:47:17;;;;;;;33.60;24.75;;;6.90;99.90;;;;;;5018699;28;20193;-93
2021/12/05 18:49:44;;;;;;;36.95;22.45;;;6.80;99.90;;;;;;5034092;28;20198;-91
2021/12/05 18:52:10;;;;;;;32.88;21.65;;;6.80;99.90;;;;;;5016597;28;20203;-91